createdAt,value
2018-11-02T00:00:40.086Z,9.00
2018-11-02T00:03:08.837Z,8.90
2018-11-02T00:05:37.060Z,8.90
2018-11-02T00:08:05.504Z,8.90
2018-11-02T00:10:33.596Z,8.90
2018-11-02T00:13:01.753Z,8.90
2018-11-02T00:15:29.889Z,8.90
2018-11-02T00:17:57.955Z,9.00
2018-11-02T00:22:48.094Z,9.00
2018-11-02T00:25:16.157Z,8.90
2018-11-02T00:27:44.226Z,8.90
2018-11-02T00:30:12.320Z,8.90
2018-11-02T00:32:40.457Z,8.90
2018-11-02T00:35:09.108Z,8.80
2018-11-02T00:37:37.166Z,8.80
2018-11-02T00:40:06.976Z,8.80
2018-11-02T00:42:35.544Z,8.80
2018-11-02T00:45:03.861Z,8.80
2018-11-02T00:47:31.940Z,8.70
2018-11-02T00:50:00.016Z,8.70
2018-11-02T00:52:28.085Z,8.70
2018-11-02T00:54:56.126Z,8.60
2018-11-02T00:57:24.429Z,8.50
2018-11-02T00:59:52.529Z,8.50
2018-11-02T01:02:20.622Z,8.50
2018-11-02T01:04:49.191Z,8.50
2018-11-02T01:07:17.310Z,8.50
2018-11-02T01:09:45.627Z,8.40
2018-11-02T01:12:13.787Z,8.40
2018-11-02T01:14:41.850Z,8.40
2018-11-02T01:17:09.945Z,8.40
2018-11-02T01:19:38.070Z,8.40
2018-11-02T01:22:06.499Z,8.30
2018-11-02T01:24:34.570Z,8.20
2018-11-02T01:27:02.644Z,8.20
2018-11-02T01:29:30.745Z,8.10
2018-11-02T01:31:58.829Z,8.00
2018-11-02T01:34:27.075Z,8.00
2018-11-02T01:36:55.192Z,7.90
2018-11-02T01:39:23.325Z,7.90
2018-11-02T01:41:51.422Z,7.90
2018-11-02T01:44:19.540Z,7.90
2018-11-02T01:46:47.627Z,7.90
2018-11-02T01:49:15.709Z,8.00
2018-11-02T01:51:43.767Z,8.00
2018-11-02T01:54:11.840Z,8.00
2018-11-02T01:56:39.895Z,8.00
2018-11-02T01:59:08.115Z,8.00
2018-11-02T02:01:36.213Z,8.00
2018-11-02T02:04:04.426Z,8.00
2018-11-02T02:06:32.530Z,7.90
2018-11-02T02:09:00.641Z,7.90
2018-11-02T02:11:28.743Z,7.90
2018-11-02T02:13:56.798Z,7.90
2018-11-02T02:16:24.865Z,7.90
2018-11-02T02:18:52.975Z,8.00
2018-11-02T02:21:21.059Z,7.90
2018-11-02T02:23:49.222Z,7.90
2018-11-02T02:26:17.537Z,7.90
2018-11-02T02:28:45.639Z,7.90
2018-11-02T02:31:13.712Z,7.90
2018-11-02T02:33:41.830Z,7.90
2018-11-02T02:36:09.870Z,7.90
2018-11-02T02:38:37.964Z,7.90
2018-11-02T02:41:06.032Z,7.80
2018-11-02T02:43:34.194Z,7.80
2018-11-02T02:46:02.284Z,7.80
2018-11-02T02:48:30.379Z,7.80
2018-11-02T02:50:58.480Z,7.80
2018-11-02T02:53:26.554Z,7.70
2018-11-02T02:55:54.596Z,7.80
2018-11-02T02:58:22.748Z,7.70
2018-11-02T03:00:50.845Z,7.80
2018-11-02T03:03:19.025Z,7.70
2018-11-02T03:05:47.193Z,7.70
2018-11-02T03:08:15.335Z,7.70
2018-11-02T03:10:43.558Z,7.70
2018-11-02T03:13:11.515Z,7.70
2018-11-02T03:15:39.579Z,7.80
2018-11-02T03:18:07.762Z,7.80
2018-11-02T03:20:35.772Z,7.80
2018-11-02T03:23:03.833Z,7.80
2018-11-02T03:25:31.901Z,7.80
2018-11-02T03:27:59.974Z,7.90
2018-11-02T03:30:28.084Z,7.90
2018-11-02T03:32:56.188Z,7.90
2018-11-02T03:35:24.300Z,7.90
2018-11-02T03:37:52.419Z,7.90
2018-11-02T03:40:20.681Z,8.00
2018-11-02T03:42:48.749Z,7.90
2018-11-02T03:45:16.835Z,7.90
2018-11-02T03:47:44.904Z,7.90
2018-11-02T03:50:13.014Z,7.90
2018-11-02T03:52:41.702Z,7.90
2018-11-02T03:55:09.779Z,7.90
2018-11-02T03:57:37.839Z,7.80
2018-11-02T04:00:07.136Z,7.80
2018-11-02T04:02:35.227Z,7.80
2018-11-02T04:05:03.312Z,7.80
2018-11-02T04:07:31.351Z,7.80
2018-11-02T04:09:59.436Z,7.80
2018-11-02T04:12:27.509Z,7.80
2018-11-02T04:14:55.591Z,7.90
2018-11-02T04:17:23.765Z,7.90
2018-11-02T04:19:51.836Z,7.90
2018-11-02T04:22:19.881Z,7.90
2018-11-02T04:24:47.957Z,7.80
2018-11-02T04:27:16.079Z,7.80
2018-11-02T04:29:44.152Z,7.80
2018-11-02T04:32:12.246Z,7.80
2018-11-02T04:34:40.342Z,7.90
2018-11-02T04:37:08.432Z,7.80
2018-11-02T04:39:36.542Z,7.80
2018-11-02T04:42:04.793Z,7.80
2018-11-02T04:44:32.846Z,7.80
2018-11-02T04:47:00.966Z,7.80
2018-11-02T04:49:29.067Z,7.70
2018-11-02T04:51:57.120Z,7.70
2018-11-02T04:54:25.211Z,7.60
2018-11-02T04:56:53.327Z,7.60
2018-11-02T04:59:21.414Z,7.60
2018-11-02T05:01:49.473Z,7.60
2018-11-02T05:04:17.582Z,7.60
2018-11-02T05:06:45.736Z,7.60
2018-11-02T05:09:13.832Z,7.60
2018-11-02T05:11:41.888Z,7.60
2018-11-02T05:14:09.955Z,7.40
2018-11-02T05:16:38.048Z,7.50
2018-11-02T05:19:06.305Z,7.50
2018-11-02T05:21:34.382Z,7.50
2018-11-02T05:24:02.494Z,7.50
2018-11-02T05:26:30.626Z,7.50
2018-11-02T05:28:58.660Z,7.40
2018-11-02T05:31:26.739Z,7.40
2018-11-02T05:33:54.819Z,7.40
2018-11-02T05:36:22.919Z,7.40
2018-11-02T05:38:51.006Z,7.30
2018-11-02T05:41:19.145Z,7.40
2018-11-02T05:43:47.227Z,7.40
2018-11-02T05:46:15.316Z,7.40
2018-11-02T05:48:43.492Z,7.40
2018-11-02T05:51:11.569Z,7.40
2018-11-02T05:53:39.635Z,7.40
2018-11-02T05:56:07.728Z,7.40
2018-11-02T05:58:35.816Z,7.40
2018-11-02T06:01:03.879Z,7.40
2018-11-02T06:03:31.982Z,7.40
2018-11-02T06:06:00.076Z,7.40
2018-11-02T06:08:28.183Z,7.40
2018-11-02T06:10:56.437Z,7.30
2018-11-02T06:13:24.516Z,7.40
2018-11-02T06:15:52.614Z,7.40
2018-11-02T06:18:20.653Z,7.30
2018-11-02T06:20:48.741Z,7.30
2018-11-02T06:23:16.879Z,7.40
2018-11-02T06:25:45.038Z,7.40
2018-11-02T06:28:13.124Z,7.40
2018-11-02T06:30:41.591Z,7.40
2018-11-02T06:33:16.236Z,7.40
2018-11-02T06:35:44.372Z,7.40
2018-11-02T06:38:12.509Z,7.30
2018-11-02T06:40:40.633Z,7.40
2018-11-02T06:43:09.693Z,7.40
2018-11-02T06:45:37.736Z,7.40
2018-11-02T06:48:05.809Z,7.40
2018-11-02T06:50:33.908Z,7.30
2018-11-02T06:53:01.980Z,7.40
2018-11-02T06:55:30.053Z,7.40
2018-11-02T06:57:58.092Z,7.40
2018-11-02T07:00:26.239Z,7.40
2018-11-02T07:02:54.384Z,7.50
2018-11-02T07:05:22.514Z,7.60
2018-11-02T07:07:50.823Z,7.70
2018-11-02T07:10:18.776Z,7.70
2018-11-02T07:12:46.874Z,7.80
2018-11-02T07:15:14.907Z,7.80
2018-11-02T07:17:43.022Z,7.90
2018-11-02T07:20:11.153Z,7.90
2018-11-02T07:22:39.240Z,8.00
2018-11-02T07:25:07.477Z,8.10
2018-11-02T07:27:35.527Z,8.10
2018-11-02T07:30:04.119Z,8.10
2018-11-02T07:32:32.200Z,8.20
2018-11-02T07:35:00.253Z,8.20
2018-11-02T07:37:28.295Z,8.20
2018-11-02T07:39:57.128Z,8.30
2018-11-02T07:42:25.358Z,8.40
2018-11-02T07:44:53.419Z,8.40
2018-11-02T07:47:21.492Z,8.50
2018-11-02T07:49:49.571Z,8.50
2018-11-02T07:52:17.652Z,8.50
2018-11-02T07:54:45.753Z,8.60
2018-11-02T07:57:13.831Z,8.70
2018-11-02T07:59:41.893Z,8.80
2018-11-02T08:02:09.987Z,8.90
2018-11-02T08:04:38.100Z,8.90
2018-11-02T08:07:06.596Z,8.90
2018-11-02T08:09:34.731Z,9.00
2018-11-02T08:12:02.929Z,9.10
2018-11-02T08:14:31.083Z,9.20
2018-11-02T08:16:59.152Z,9.20
2018-11-02T08:19:27.260Z,9.30
2018-11-02T08:21:55.301Z,9.30
2018-11-02T08:24:23.391Z,9.30
2018-11-02T08:26:51.493Z,9.30
2018-11-02T08:29:19.555Z,9.30
2018-11-02T08:31:47.616Z,9.40
2018-11-02T08:34:15.680Z,9.50
2018-11-02T08:36:43.744Z,9.50
2018-11-02T08:39:12.456Z,9.60
2018-11-02T08:41:40.765Z,9.70
2018-11-02T08:44:09.317Z,9.70
2018-11-02T08:46:37.988Z,9.70
2018-11-02T08:49:05.963Z,9.70
2018-11-02T08:51:34.032Z,9.80
2018-11-02T08:54:02.149Z,9.80
2018-11-02T08:56:30.199Z,9.80
2018-11-02T08:58:58.336Z,9.80
2018-11-02T09:01:26.378Z,9.80
2018-11-02T09:03:54.508Z,9.90
2018-11-02T09:06:22.544Z,10.00
2018-11-02T09:08:50.613Z,10.00
2018-11-02T09:11:18.823Z,10.20
2018-11-02T09:13:46.894Z,10.30
2018-11-02T09:16:14.952Z,10.40
2018-11-02T09:18:43.076Z,10.40
2018-11-02T09:21:11.198Z,10.50
2018-11-02T09:23:39.247Z,10.60
2018-11-02T09:26:07.432Z,10.70
2018-11-02T09:28:35.563Z,10.80
2018-11-02T09:31:03.645Z,10.90
2018-11-02T09:33:31.763Z,10.90
2018-11-02T09:35:59.812Z,10.90
2018-11-02T09:38:27.899Z,10.90
2018-11-02T09:40:55.947Z,11.00
2018-11-02T09:43:24.041Z,11.00
2018-11-02T09:45:52.124Z,11.10
2018-11-02T09:48:20.172Z,11.20
2018-11-02T09:50:48.253Z,11.20
2018-11-02T09:53:16.353Z,11.20
2018-11-02T09:55:44.440Z,11.20
2018-11-02T09:58:12.524Z,11.30
2018-11-02T10:03:15.254Z,11.40
2018-11-02T10:05:43.362Z,11.50
2018-11-02T10:08:11.492Z,11.60
2018-11-02T10:10:39.604Z,11.50
2018-11-02T10:13:07.699Z,11.70
2018-11-02T10:15:35.791Z,11.70
2018-11-02T10:18:03.881Z,11.60
2018-11-02T10:20:31.950Z,11.60
2018-11-02T10:23:00.012Z,11.70
2018-11-02T10:25:28.166Z,11.70
2018-11-02T10:27:56.332Z,11.80
2018-11-02T10:30:24.347Z,11.90
2018-11-02T10:32:54.487Z,12.00
2018-11-02T10:35:22.826Z,12.10
2018-11-02T10:37:50.903Z,12.10
2018-11-02T10:40:19.530Z,11.90
2018-11-02T10:42:55.625Z,11.90
2018-11-02T10:45:25.874Z,11.90
2018-11-02T10:47:53.914Z,11.90
2018-11-02T10:50:21.986Z,11.80
2018-11-02T10:52:50.073Z,12.00
2018-11-02T10:55:18.221Z,12.00
2018-11-02T10:57:46.352Z,12.00
2018-11-02T11:00:19.760Z,11.90
2018-11-02T11:02:47.875Z,12.00
2018-11-02T11:05:16.014Z,12.00
2018-11-02T11:07:44.107Z,12.10
2018-11-02T11:10:12.554Z,12.20
2018-11-02T11:12:40.912Z,12.20
2018-11-02T11:15:08.941Z,12.30
2018-11-02T11:17:37.228Z,12.30
2018-11-02T11:20:08.435Z,12.30
2018-11-02T11:22:36.584Z,12.30
2018-11-02T11:25:05.645Z,12.30
2018-11-02T11:27:33.758Z,12.20
2018-11-02T11:30:01.827Z,12.30
2018-11-02T11:32:29.905Z,12.30
2018-11-02T11:34:58.000Z,12.40
2018-11-02T11:37:26.087Z,12.40
2018-11-02T11:39:54.199Z,12.40
2018-11-02T11:42:22.302Z,12.50
2018-11-02T11:44:50.454Z,12.60
2018-11-02T11:47:18.586Z,12.70
2018-11-02T11:49:46.677Z,12.80
2018-11-02T11:52:14.791Z,12.80
2018-11-02T11:54:42.890Z,12.80
2018-11-02T11:57:10.930Z,12.80
2018-11-02T11:59:39.071Z,12.90
2018-11-02T12:02:07.199Z,13.00
2018-11-02T12:04:35.418Z,13.00
2018-11-02T12:07:03.376Z,13.20
2018-11-02T12:09:31.473Z,13.30
2018-11-02T12:11:59.536Z,13.30
2018-11-02T12:14:27.647Z,13.20
2018-11-02T12:16:55.803Z,13.20
2018-11-02T12:19:24.185Z,13.30
2018-11-02T12:21:52.407Z,13.30
2018-11-02T12:24:20.520Z,13.40
2018-11-02T12:26:48.627Z,13.40
2018-11-02T12:29:16.763Z,13.50
2018-11-02T12:31:44.885Z,12.80
2018-11-02T12:34:13.131Z,13.60
2018-11-02T12:36:41.214Z,13.70
2018-11-02T12:39:09.298Z,13.70
2018-11-02T12:41:37.781Z,13.80
2018-11-02T12:44:05.928Z,13.80
2018-11-02T12:46:34.012Z,13.90
2018-11-02T12:49:02.363Z,14.00
2018-11-02T12:51:30.244Z,14.00
2018-11-02T12:53:58.319Z,14.00
2018-11-02T12:56:26.393Z,14.00
2018-11-02T12:58:54.493Z,13.90
2018-11-02T13:01:22.588Z,13.90
2018-11-02T13:03:50.688Z,13.80
2018-11-02T13:06:18.782Z,13.70
2018-11-02T13:08:46.894Z,13.60
2018-11-02T13:11:15.073Z,13.60
2018-11-02T13:13:43.227Z,13.60
2018-11-02T13:16:12.429Z,13.60
2018-11-02T13:18:40.416Z,13.70
2018-11-02T13:21:08.535Z,13.70
2018-11-02T13:23:36.683Z,13.60
2018-11-02T13:26:05.286Z,13.50
2018-11-02T13:28:33.287Z,13.50
2018-11-02T13:31:01.474Z,13.40
2018-11-02T13:33:29.744Z,13.30
2018-11-02T13:35:57.842Z,13.30
2018-11-02T13:38:25.916Z,13.20
2018-11-02T13:40:54.322Z,13.20
2018-11-02T13:43:22.430Z,13.20
2018-11-02T13:45:50.473Z,13.10
2018-11-02T13:48:18.587Z,13.10
2018-11-02T13:50:46.682Z,13.10
2018-11-02T13:53:14.744Z,13.20
2018-11-02T13:55:42.815Z,13.20
2018-11-02T13:58:10.867Z,13.30
2018-11-02T14:00:38.977Z,13.30
2018-11-02T14:03:07.054Z,13.30
2018-11-02T14:05:35.609Z,13.30
2018-11-02T14:08:03.674Z,13.30
2018-11-02T14:10:31.848Z,13.30
2018-11-02T14:12:59.974Z,13.30
2018-11-02T14:15:28.389Z,13.30
2018-11-02T14:17:56.464Z,13.30
2018-11-02T14:20:24.569Z,13.20
2018-11-02T14:22:52.682Z,13.30
2018-11-02T14:25:20.760Z,13.30
2018-11-02T14:27:48.856Z,13.30
2018-11-02T14:30:17.743Z,13.30
2018-11-02T14:35:41.542Z,13.40
2018-11-02T14:38:09.616Z,13.40
2018-11-02T14:40:37.882Z,13.40
2018-11-02T14:43:05.951Z,13.40
2018-11-02T14:45:34.077Z,13.30
2018-11-02T14:48:02.147Z,13.20
2018-11-02T14:50:30.215Z,13.20
2018-11-02T14:52:58.318Z,13.00
2018-11-02T14:55:26.357Z,13.00
2018-11-02T14:57:54.422Z,12.90
2018-11-02T15:00:29.049Z,12.80
2018-11-02T15:02:57.169Z,12.80
2018-11-02T15:05:25.328Z,12.70
2018-11-02T15:07:53.444Z,12.60
2018-11-02T15:10:21.497Z,12.60
2018-11-02T15:12:49.554Z,12.50
2018-11-02T15:15:17.672Z,12.50
2018-11-02T15:17:45.757Z,12.40
2018-11-02T15:20:15.251Z,12.40
2018-11-02T15:22:43.409Z,12.60
2018-11-02T15:25:17.997Z,12.50
2018-11-02T15:27:46.136Z,12.50
2018-11-02T15:30:14.788Z,12.40
2018-11-02T15:32:44.192Z,12.30
2018-11-02T15:35:12.574Z,12.30
2018-11-02T15:37:41.156Z,12.30
2018-11-02T15:40:10.355Z,12.20
2018-11-02T15:42:38.466Z,12.10
2018-11-02T15:45:08.053Z,12.10
2018-11-02T15:47:36.150Z,11.90
2018-11-02T15:50:05.132Z,11.90
2018-11-02T15:52:33.204Z,11.90
2018-11-02T15:55:01.300Z,11.80
2018-11-02T15:57:29.398Z,11.70
2018-11-02T15:59:57.482Z,11.50
2018-11-02T16:02:25.626Z,11.40
2018-11-02T16:04:53.739Z,11.50
2018-11-02T16:07:21.865Z,11.50
2018-11-02T16:09:49.965Z,11.60
2018-11-02T16:14:52.580Z,11.40
2018-11-02T16:17:20.641Z,11.30
2018-11-02T16:19:48.720Z,11.20
2018-11-02T16:22:16.808Z,11.10
2018-11-02T16:24:44.962Z,11.10
2018-11-02T16:27:13.100Z,11.00
2018-11-02T16:29:41.158Z,10.90
2018-11-02T16:32:09.267Z,10.90
2018-11-02T16:34:37.336Z,10.90
2018-11-02T16:37:05.699Z,10.80
2018-11-02T16:39:33.811Z,10.80
2018-11-02T16:42:01.933Z,10.70
2018-11-02T16:44:30.074Z,10.70
2018-11-02T16:46:58.103Z,10.70
2018-11-02T16:49:26.208Z,10.60
2018-11-02T16:51:54.302Z,10.60
2018-11-02T16:54:22.475Z,10.70
2018-11-02T16:56:50.608Z,10.70
2018-11-02T16:59:18.779Z,10.80
2018-11-02T17:01:46.872Z,10.60
2018-11-02T17:04:15.031Z,10.50
2018-11-02T17:06:43.131Z,10.40
2018-11-02T17:09:12.789Z,10.30
2018-11-02T17:11:41.092Z,10.30
2018-11-02T17:14:09.160Z,10.30
2018-11-02T17:16:37.381Z,10.10
2018-11-02T17:19:05.680Z,10.00
2018-11-02T17:21:33.785Z,9.90
2018-11-02T17:24:02.022Z,9.90
2018-11-02T17:26:30.438Z,9.90
2018-11-02T17:28:58.557Z,9.90
2018-11-02T17:31:26.668Z,9.90
2018-11-02T17:33:54.784Z,9.80
2018-11-02T17:36:22.863Z,9.80
2018-11-02T17:38:51.349Z,9.90
2018-11-02T17:41:19.952Z,9.80
2018-11-02T17:43:48.139Z,9.90
2018-11-02T17:46:16.207Z,9.90
2018-11-02T17:48:44.285Z,9.90
2018-11-02T17:51:12.392Z,9.90
2018-11-02T17:53:40.551Z,9.80
2018-11-02T17:56:08.813Z,9.80
2018-11-02T17:58:36.891Z,9.80
2018-11-02T18:01:05.168Z,9.70
2018-11-02T18:03:33.459Z,9.70
2018-11-02T18:06:01.619Z,9.70
2018-11-02T18:08:29.901Z,9.70
2018-11-02T18:10:57.965Z,9.70
2018-11-02T18:13:26.076Z,9.70
2018-11-02T18:15:54.241Z,9.80
2018-11-02T18:18:22.409Z,9.80
2018-11-02T18:20:50.783Z,9.80
2018-11-02T18:23:19.063Z,9.80
2018-11-02T18:25:47.161Z,9.90
2018-11-02T18:28:15.313Z,9.90
2018-11-02T18:30:43.412Z,9.90
2018-11-02T18:33:11.539Z,9.80
2018-11-02T18:35:39.815Z,9.80
2018-11-02T18:38:08.176Z,9.80
2018-11-02T18:40:36.345Z,9.70
2018-11-02T18:43:04.511Z,9.70
2018-11-02T18:45:32.788Z,9.70
2018-11-02T18:48:00.920Z,9.70
2018-11-02T18:50:35.810Z,9.60
2018-11-02T18:53:03.900Z,9.70
2018-11-02T18:55:32.096Z,9.60
2018-11-02T18:58:00.317Z,9.50
2018-11-02T19:00:28.320Z,9.50
2018-11-02T19:02:56.551Z,9.40
2018-11-02T19:05:24.902Z,9.30
2018-11-02T19:07:53.094Z,9.20
2018-11-02T19:10:21.557Z,9.20
2018-11-02T19:12:49.742Z,9.10
2018-11-02T19:15:19.082Z,9.10
2018-11-02T19:17:47.372Z,9.00
2018-11-02T19:20:15.886Z,9.00
2018-11-02T19:22:44.249Z,8.90
2018-11-02T19:25:13.552Z,8.90
2018-11-02T19:27:41.941Z,8.90
2018-11-02T19:30:11.240Z,8.90
2018-11-02T19:32:39.392Z,8.80
2018-11-02T19:35:08.147Z,8.90
2018-11-02T19:37:36.182Z,9.00
2018-11-02T19:40:05.517Z,9.00
2018-11-02T19:42:33.754Z,9.00
2018-11-02T19:45:01.861Z,9.00
2018-11-02T19:47:35.603Z,9.00
2018-11-02T19:50:03.967Z,9.00
2018-11-02T19:52:32.095Z,9.00
2018-11-02T19:55:00.248Z,9.00
2018-11-02T19:57:28.387Z,9.10
2018-11-02T19:59:56.380Z,9.20
2018-11-02T20:02:24.500Z,9.20
2018-11-02T20:04:52.676Z,9.30
2018-11-02T20:07:20.962Z,9.30
2018-11-02T20:09:49.341Z,9.30
2018-11-02T20:12:17.507Z,9.30
2018-11-02T20:14:45.651Z,9.30
2018-11-02T20:17:13.819Z,9.30
2018-11-02T20:19:42.014Z,9.40
2018-11-02T20:22:10.183Z,9.50
2018-11-02T20:24:38.297Z,9.50
2018-11-02T20:27:06.428Z,9.50
2018-11-02T20:29:34.535Z,9.50
2018-11-02T20:32:02.980Z,9.50
2018-11-02T20:34:30.971Z,9.50
2018-11-02T20:36:59.053Z,9.50
2018-11-02T20:39:27.316Z,9.50
2018-11-02T20:41:55.466Z,9.50
2018-11-02T20:44:23.552Z,9.60
2018-11-02T20:46:51.689Z,9.60
2018-11-02T20:49:19.961Z,9.60
2018-11-02T20:51:48.166Z,9.60
2018-11-02T20:54:16.586Z,9.60
2018-11-02T20:56:44.962Z,9.60
2018-11-02T20:59:13.199Z,9.60
2018-11-02T21:01:41.581Z,9.60
2018-11-02T21:04:09.975Z,9.60
2018-11-02T21:06:38.457Z,9.60
2018-11-02T21:09:08.992Z,9.60
2018-11-02T21:11:36.942Z,9.60
2018-11-02T21:14:05.063Z,9.60
2018-11-02T21:16:33.152Z,9.60
2018-11-02T21:19:01.341Z,9.70
2018-11-02T21:21:29.528Z,9.60
2018-11-02T21:23:57.760Z,9.60
2018-11-02T21:26:26.001Z,9.60
2018-11-02T21:28:54.131Z,9.60
2018-11-02T21:31:22.268Z,9.60
2018-11-02T21:33:50.969Z,9.60
2018-11-02T21:36:19.317Z,9.60
2018-11-02T21:38:47.503Z,9.60
2018-11-02T21:41:15.640Z,9.70
2018-11-02T21:43:43.771Z,9.70
2018-11-02T21:46:12.132Z,9.60
2018-11-02T21:48:40.208Z,9.60
2018-11-02T21:51:08.315Z,9.50
2018-11-02T21:53:36.513Z,9.40
2018-11-02T21:56:04.920Z,9.40
2018-11-02T21:58:33.115Z,9.50
2018-11-02T22:01:01.693Z,9.50
2018-11-02T22:03:29.764Z,9.50
2018-11-02T22:05:57.975Z,9.50
2018-11-02T22:08:26.230Z,9.50
2018-11-02T22:13:28.832Z,9.40
2018-11-02T22:15:57.054Z,9.40
2018-11-02T22:18:25.228Z,9.30
2018-11-02T22:20:53.446Z,9.30
2018-11-02T22:23:21.701Z,9.30
2018-11-02T22:25:49.794Z,9.30
2018-11-02T22:28:18.160Z,9.20
2018-11-02T22:30:46.325Z,9.20
2018-11-02T22:33:14.480Z,9.20
2018-11-02T22:35:42.693Z,9.20
2018-11-02T22:38:10.787Z,9.30
2018-11-02T22:40:38.960Z,9.30
2018-11-02T22:43:07.259Z,9.20
2018-11-02T22:45:35.525Z,9.30
2018-11-02T22:48:09.102Z,9.40
2018-11-02T22:50:37.222Z,9.40
2018-11-02T22:53:05.368Z,9.50
2018-11-02T22:55:33.489Z,9.50
2018-11-02T22:58:01.678Z,9.50
2018-11-02T23:00:29.762Z,9.50
2018-11-02T23:02:57.918Z,9.60
2018-11-02T23:05:26.068Z,9.50
2018-11-02T23:07:54.210Z,9.40
2018-11-02T23:10:22.390Z,9.40
2018-11-02T23:12:50.570Z,9.40
2018-11-02T23:15:18.774Z,9.40
2018-11-02T23:17:46.925Z,9.40
2018-11-02T23:20:15.320Z,9.40
2018-11-02T23:22:43.551Z,9.40
2018-11-02T23:25:12.331Z,9.40
2018-11-02T23:27:41.479Z,9.40
2018-11-02T23:30:10.285Z,9.40
2018-11-02T23:32:38.366Z,9.50
2018-11-02T23:35:06.453Z,9.50
2018-11-02T23:37:34.662Z,9.40
2018-11-02T23:40:02.853Z,9.40
2018-11-02T23:42:30.903Z,9.40
2018-11-02T23:44:59.144Z,9.40
2018-11-02T23:47:27.120Z,9.40
2018-11-02T23:49:55.236Z,9.40
2018-11-02T23:52:23.866Z,9.40
2018-11-02T23:54:51.979Z,9.40
2018-11-02T23:57:20.384Z,9.30
2018-11-02T23:59:48.470Z,9.20
